• Join FlightAware (Why Join?)
  • Login
  • US Flag 
12:16AM EDT


 

Airport Tracker/Info


-or-


 

Live Flight TrackerFlight Track Log ✈ UPS1122 ✈ 02-May-2013 ✈ KPHL - KBDL

Flight Track Log - Related Links

Times and Time Zones

All times are in EDT time to prevent confusion due to time zone crossing. See the UPS1122 flight status page for this flight to view local times or setup timezone preferences in your user account.

Time Position Orientation Groundspeed Altitude Reporting Facility
EDT Latitude Longitude Course Direction KTS MPH feet Rate Location/Type
03:37AM 39.8658 -75.2506 76° East 149 171 100  Level FlightAware ADS-B
03:38AM 39.8673 -75.2427 76° East 147 169 600 2,820 Climbing FlightAware ADS-B
03:38AM 39.8692 -75.2326 76° East 150 173 1,100 1,620 Climbing FlightAware ADS-B
03:38AM 39.8707 -75.2236 78° East 162 186 1,200 600 Climbing FlightAware ADS-B
03:38AM 39.8726 -75.2138 76° East 176 203 1,300 1,440 Climbing FlightAware ADS-B
03:38AM 39.8759 -75.1966 76° East 192 221 1,800 2,160 Climbing FlightAware ADS-B
03:38AM 39.8765 -75.1927 79° East 194 223 2,000 3,000 Climbing FlightAware ADS-B
03:38AM 39.8768 -75.1892 84° East 194 223 2,100 2,520 Climbing FlightAware ADS-B
03:39AM 39.8768 -75.1849 90° East 195 224 2,300 3,420 Climbing FlightAware ADS-B
03:39AM 39.8765 -75.1812 96° East 196 226 2,500 3,000 Climbing FlightAware ADS-B
03:39AM 39.8759 -75.1777 103° East 196 226 2,600 3,600 Climbing FlightAware ADS-B
03:39AM 39.8741 -75.1698 107° East 195 224 3,100 3,480 Climbing FlightAware ADS-B
03:39AM 39.8731 -75.1648 105° East 195 224 3,300 2,700 Climbing FlightAware ADS-B
03:39AM 39.8719 -75.1573 102° East 198 228 3,600 2,580 Climbing FlightAware ADS-B
03:39AM 39.8703 -75.1453 100° East 211 243 4,000 1,920 Climbing FlightAware ADS-B
03:39AM 39.8667 -75.1253 103° East 231 266 4,400 2,280 Climbing FlightAware ADS-B
03:40AM 39.8625 -75.1023 103° East 240 276 5,200 2,760 Climbing FlightAware ADS-B
03:40AM 39.8584 -75.0797 103° East 247 284 5,900 2,700 Climbing FlightAware ADS-B
03:40AM 39.8534 -75.0511 103° East 255 293 6,800 3,120 Climbing FlightAware ADS-B
03:40AM 39.8494 -75.0277 103° East 258 297 7,700 3,180 Climbing FlightAware ADS-B
03:41AM 39.8453 -75.0035 102° East 265 305 8,400 2,880 Climbing FlightAware ADS-B
03:41AM 39.8413 -74.9795 102° East 270 311 9,200 2,880 Climbing FlightAware ADS-B
03:41AM 39.8371 -74.9545 102° East 276 318 9,900 1,920 Climbing FlightAware ADS-B
03:42AM 39.8300 -74.9111 102° East 308 354 10,500 1,440 Climbing FlightAware ADS-B
03:42AM 39.8249 -74.8805 102° East 329 379 10,900 1,320 Climbing FlightAware ADS-B
03:42AM 39.8241 -74.8697 96° East 334 384 11,000 1,320 Climbing FlightAware ADS-B
03:42AM 39.8240 -74.8624 91° East 337 388 11,100 1,980 Climbing FlightAware ADS-B
03:42AM 39.8249 -74.8505 84° East 341 392 11,300 2,280 Climbing FlightAware ADS-B
03:42AM 39.8278 -74.8361 75° East 342 394 11,600 2,460 Climbing FlightAware ADS-B
03:42AM 39.8307 -74.8273 67° East 344 396 11,800 2,400 Climbing FlightAware ADS-B
03:42AM 39.8349 -74.8180 60° Northeast 345 397 12,000 2,160 Climbing FlightAware ADS-B
03:43AM 39.8404 -74.8087 52° Northeast 346 398 12,200 2,760 Climbing FlightAware ADS-B
03:43AM 39.8515 -74.7951 43° Northeast 348 400 12,700 2,760 Climbing FlightAware ADS-B
03:43AM 39.8910 -74.7559 37° Northeast 357 411 14,000 2,580 Climbing FlightAware ADS-B
03:44AM 39.9254 -74.7231 36° Northeast 359 413 15,100 2,760 Climbing FlightAware ADS-B
03:44AM 39.9320 -74.7168 36° Northeast 363 418 15,400 2,700 Climbing FlightAware ADS-B
03:44AM 39.9690 -74.6808 37° Northeast 366 421 16,600 2,460 Climbing FlightAware ADS-B
03:44AM 39.9730 -74.6768 37° Northeast 366 421 16,700 2,640 Climbing FlightAware ADS-B
03:45AM 40.0154 -74.6350 37° Northeast 369 425 18,100 2,700 Climbing FlightAware ADS-B
03:45AM 40.0181 -74.6323 37° Northeast 369 425 18,200 2,580 Climbing FlightAware ADS-B
03:45AM 40.0575 -74.5933 37° Northeast 373 429 19,400 2,280 Climbing FlightAware ADS-B
03:46AM 40.0999 -74.5512 37° Northeast 378 435 20,500 2,160 Climbing FlightAware ADS-B
03:46AM 40.1424 -74.5092 37° Northeast 384 442 21,600 2,100 Climbing FlightAware ADS-B
03:47AM 40.1854 -74.4670 37° Northeast 388 447 22,600 1,980 Climbing FlightAware ADS-B
03:47AM 40.2299 -74.4233 37° Northeast 394 453 23,600 1,860 Climbing FlightAware ADS-B
03:48AM 40.2746 -74.3793 37° Northeast 398 458 24,500 1,740 Climbing FlightAware ADS-B
03:48AM 40.3198 -74.3346 37° Northeast 403 464 25,400 1,860 Climbing FlightAware ADS-B
03:49AM 40.3656 -74.2892 37° Northeast 403 464 26,400 1,560 Climbing FlightAware ADS-B
03:49AM 40.4109 -74.2444 37° Northeast 401 461 27,000 600 Climbing FlightAware ADS-B
03:50AM 40.4552 -74.2003 37° Northeast 399 459 27,000  Level FlightAware ADS-B
03:50AM 40.4929 -74.1619 38° Northeast 398 458 27,000  Level FlightAware ADS-B
03:50AM 40.4990 -74.1556 38° Northeast 398 458 27,000  Level FlightAware ADS-B
03:51AM 40.5438 -74.1094 38° Northeast 398 458 27,000  Level FlightAware ADS-B
03:51AM 40.5874 -74.0643 38° Northeast 399 459 27,000  Level FlightAware ADS-B
03:52AM 40.6316 -74.0186 38° Northeast 399 459 27,000  Level FlightAware ADS-B
03:52AM 40.6758 -73.9730 38° Northeast 398 458 27,000  Level FlightAware ADS-B
03:53AM 40.7195 -73.9279 38° Northeast 398 458 27,000  Level FlightAware ADS-B
03:53AM 40.7636 -73.8823 38° Northeast 398 458 27,000  Level FlightAware ADS-B
03:54AM 40.8076 -73.8372 38° Northeast 398 458 27,000  Level FlightAware ADS-B
03:54AM 40.8513 -73.7926 38° Northeast 397 457 27,000  Level FlightAware ADS-B
03:55AM 40.8965 -73.7466 38° Northeast 397 457 27,000  Level FlightAware ADS-B
03:55AM 40.9405 -73.7020 37° Northeast 396 456 27,000  Level FlightAware ADS-B
03:56AM 40.9843 -73.6572 38° Northeast 395 455 27,000 -420 Level FlightAware ADS-B
03:56AM 41.0282 -73.6124 38° Northeast 401 461 26,600 -600 Descending FlightAware ADS-B
03:57AM 41.0725 -73.5670 38° Northeast 402 463 26,400 -1,140 Descending FlightAware ADS-B
03:57AM 41.1161 -73.5219 38° Northeast 393 452 25,500 -2,100 Descending FlightAware ADS-B
03:58AM 41.1591 -73.4775 38° Northeast 391 450 24,300 -2,220 Descending FlightAware ADS-B
03:58AM 41.2017 -73.4337 38° Northeast 371 427 23,300 -1,740 Descending FlightAware ADS-B
03:59AM 41.2406 -73.3934 38° Northeast 347 399 22,600 -1,800 Descending FlightAware ADS-B
03:59AM 41.2785 -73.3542 38° Northeast 336 387 21,500 -2,400 Descending FlightAware ADS-B
04:00AM 41.2966 -73.3361 37° Northeast 332 382 20,800 -2,640 Descending FlightAware ADS-B
04:00AM 41.3071 -73.3278 31° Northeast 328 377 20,500 -1,920 Descending FlightAware ADS-B
04:00AM 41.3491 -73.3079 20° North 305 351 19,600 -2,100 Descending FlightAware ADS-B
04:01AM 41.3909 -73.2922 16° North 296 341 18,400 -2,220 Descending FlightAware ADS-B
04:01AM 41.4326 -73.2775 15° North 295 339 17,300 -1,980 Descending FlightAware ADS-B
04:02AM 41.4604 -73.2672 16° North 293 337 16,700 -1,440 Descending FlightAware ADS-B
04:03AM 41.5040 -73.2190 40° Northeast 295 339 14,900 -1,620 Descending FlightAware
04:04AM 41.5680 -73.1440 41° Northeast 278 320 13,600 -960 Descending FlightAware
04:04AM 41.6090 -73.0960 41° Northeast 278 320 13,600 -3,060 Level FlightAware
04:05AM 41.6530 -73.0440 41° Northeast 270 311 9,300 -4,020 Descending FlightAware
04:05AM 41.6770 -73.0160 41° Northeast 270 311 9,300  Level FlightAware
04:06AM 41.6930 -72.9970 42° Northeast 270 311 9,300  Level FlightAware
04:06AM 41.7090 -72.9780 42° Northeast 270 311 9,300 -6,180 Level FlightAware
04:06AM 41.7303 -72.9547 42° Northeast 249 287 5,400 -4,320 Descending Boston Center
04:07AM 41.7825 -72.8967 40° Northeast 244 281 3,700 -1,200 Descending Boston Center
04:08AM 41.8203 -72.8439 46° Northeast 213 245 3,100 -660 Descending Boston Center
04:09AM 41.8558 -72.7969 45° Northeast 188 216 2,400 -900 Descending Boston Center
04:10AM 41.8914 -72.7525 43° Northeast 177 204 1,400 -900 Descending Boston Center
04:11AM 41.9167 -72.7192 44° Northeast 150 173 700 8,760 Descending Boston Center
04:12AM 41.9436 -72.6858 43° Northeast 139 160 19,000 9,120 Climbing Boston Center
04:13AM 41.9689 -72.6494 47° Northeast 139 160 19,000  Level Boston Center
04:14AM 41.9958 -72.6161 43° Northeast 139 160 19,000  Level Boston Center
04:16AM 41.9333 -72.6833 228° Southwest  Level FlightAware Approximate
04:23AM 41.9392 -72.6834 228° Southwest  Level Estimated
04:24AM 41.9333 -72.6833 228° Southwest  Level FlightAware Approximate
04:25AM 41.9392 -72.6834 228° Southwest  Level Estimated
04:26AM 41.9333 -72.6833 228° Southwest  Level FlightAware Approximate